PWSweather.com
Personal Weather Stations
Station Observations
ERMELO
Centre, ErmeloNL

CentreErmeloNL

Lat: 52.2986655, Lon: 5.6296194

Elevation: 41

Station Type: Oregon WMR200

www.meteoermelo.nl

High Low Average
Temperature 46.4°F8.0°C 32.4°F0.2°C 41.8°F5.4°C
Dew Point 38.0°F3.3°C 25.6°F-3.6°C 34.3°F1.3°C
Winds 10.9 mph 17.5 kmh 1.1 mph 1.8 kmh 7.0 mph SW11.3 kmh SW
Wind Gusts 19.7 mph31.7 kmh 2.5 mph4.0 kmh 12.0 mph19.3 kmh
Humidity 88% 62% 75%
Pressure 30.12 in1020.0 mb 29.92 in1013.2 mb -
Precipitation 0.00 in0.0 mm - -
Hour Temp Dew Point Humidity Winds Wind Gusts Pressure Precip Precip Rate Daily Precip Total
12:00 AM 32.4°F0.2°C 25.6°F-3.6°C 76% 1.3 mph SSW2.1 kmh SSW 2.9 mph4.7 kmh 30.12 in1020.0 mb 0.00 in0.0 mm 0.00 in0.0 mm 0.00 in0.0 mm
12:15 AM 32.7°F0.4°C 26.6°F-3.0°C 78% 2.0 mph SSW3.2 kmh SSW 2.9 mph4.7 kmh 30.12 in1020.0 mb 0.00 in0.0 mm 0.00 in0.0 mm 0.00 in0.0 mm
12:30 AM 32.5°F0.3°C 26.4°F-3.1°C 78% 2.5 mph SW4.0 kmh SW 4.3 mph6.9 kmh 30.12 in1020.0 mb 0.00 in0.0 mm 0.00 in0.0 mm 0.00 in0.0 mm
12:45 AM 33.1°F0.6°C 27.0°F-2.8°C 78% 2.9 mph WSW4.7 kmh WSW 4.3 mph6.9 kmh 30.09 in1019.0 mb 0.00 in0.0 mm 0.00 in0.0 mm 0.00 in0.0 mm
01:00 AM 33.1°F0.6°C 27.0°F-2.8°C 78% 2.5 mph SW4.0 kmh SW 4.0 mph6.4 kmh 30.12 in1020.0 mb 0.00 in0.0 mm 0.00 in0.0 mm 0.00 in0.0 mm
01:15 AM 33.1°F0.6°C 27.3°F-2.6°C 79% 1.1 mph SSW1.8 kmh SSW 2.5 mph4.0 kmh 30.12 in1020.0 mb 0.00 in0.0 mm 0.00 in0.0 mm 0.00 in0.0 mm
01:30 AM 33.1°F0.6°C 27.3°F-2.6°C 79% 3.3 mph SW5.3 kmh SW 6.3 mph10.1 kmh 30.12 in1020.0 mb 0.00 in0.0 mm 0.00 in0.0 mm 0.00 in0.0 mm
01:45 AM 33.8°F1.0°C 28.6°F-1.9°C 81% 4.1 mph SW6.6 kmh SW 6.5 mph10.5 kmh 30.09 in1019.0 mb 0.00 in0.0 mm 0.00 in0.0 mm 0.00 in0.0 mm
02:00 AM 34.2°F1.2°C 28.6°F-1.9°C 80% 3.5 mph SW5.6 kmh SW 5.4 mph8.7 kmh 30.12 in1020.0 mb 0.00 in0.0 mm 0.00 in0.0 mm 0.00 in0.0 mm
02:15 AM 34.2°F1.2°C 28.6°F-1.9°C 80% 2.7 mph SSW4.3 kmh SSW 4.7 mph7.6 kmh 30.12 in1020.0 mb 0.00 in0.0 mm 0.00 in0.0 mm 0.00 in0.0 mm
02:30 AM 34.2°F1.2°C 28.6°F-1.9°C 80% 3.8 mph SW6.1 kmh SW 6.3 mph10.1 kmh 30.09 in1019.0 mb 0.00 in0.0 mm 0.00 in0.0 mm 0.00 in0.0 mm
02:45 AM 34.2°F1.2°C 28.6°F-1.9°C 80% 4.4 mph SW7.1 kmh SW 8.1 mph13.0 kmh 30.09 in1019.0 mb 0.00 in0.0 mm 0.00 in0.0 mm 0.00 in0.0 mm
03:00 AM 34.0°F1.1°C 28.2°F-2.1°C 79% 2.4 mph SSW3.9 kmh SSW 4.7 mph7.6 kmh 30.09 in1019.0 mb 0.00 in0.0 mm 0.00 in0.0 mm 0.00 in0.0 mm
03:15 AM 33.8°F1.0°C 28.0°F-2.2°C 79% 2.6 mph SSW4.2 kmh SSW 4.0 mph6.4 kmh 30.09 in1019.0 mb 0.00 in0.0 mm 0.00 in0.0 mm 0.00 in0.0 mm
03:30 AM 34.2°F1.2°C 28.6°F-1.9°C 80% 3.7 mph SW6.0 kmh SW 7.6 mph12.2 kmh 30.09 in1019.0 mb 0.00 in0.0 mm 0.00 in0.0 mm 0.00 in0.0 mm
03:45 AM 35.1°F1.7°C 29.8°F-1.2°C 81% 4.9 mph WSW7.9 kmh WSW 7.6 mph12.2 kmh 30.09 in1019.0 mb 0.00 in0.0 mm 0.00 in0.0 mm 0.00 in0.0 mm
04:00 AM 35.6°F2.0°C 30.6°F-0.8°C 82% 5.5 mph SW8.9 kmh SW 9.6 mph15.4 kmh 30.09 in1019.0 mb 0.00 in0.0 mm 0.00 in0.0 mm 0.00 in0.0 mm
04:15 AM 36.3°F2.4°C 31.7°F-0.2°C 83% 5.4 mph WSW8.7 kmh WSW 7.6 mph12.2 kmh 30.09 in1019.0 mb 0.00 in0.0 mm 0.00 in0.0 mm 0.00 in0.0 mm
04:30 AM 37.0°F2.8°C 32.4°F0.2°C 83% 5.5 mph WSW8.9 kmh WSW 8.5 mph13.7 kmh 30.07 in1018.3 mb 0.00 in0.0 mm 0.00 in0.0 mm 0.00 in0.0 mm
04:45 AM 37.8°F3.2°C 33.1°F0.6°C 83% 4.8 mph SW7.7 kmh SW 9.8 mph15.8 kmh 30.07 in1018.3 mb 0.00 in0.0 mm 0.00 in0.0 mm 0.00 in0.0 mm
05:00 AM 37.8°F3.2°C 32.5°F0.3°C 81% 4.2 mph SW6.8 kmh SW 7.6 mph12.2 kmh 30.04 in1017.3 mb 0.00 in0.0 mm 0.00 in0.0 mm 0.00 in0.0 mm
05:15 AM 38.1°F3.4°C 33.1°F0.6°C 82% 5.2 mph SW8.4 kmh SW 9.4 mph15.1 kmh 30.07 in1018.3 mb 0.00 in0.0 mm 0.00 in0.0 mm 0.00 in0.0 mm
05:30 AM 38.5°F3.6°C 33.5°F0.8°C 82% 7.1 mph SW11.4 kmh SW 14.1 mph22.7 kmh 30.07 in1018.3 mb 0.00 in0.0 mm 0.00 in0.0 mm 0.00 in0.0 mm
05:45 AM 38.3°F3.5°C 33.3°F0.7°C 82% 5.9 mph SW9.5 kmh SW 10.1 mph16.3 kmh 30.07 in1018.3 mb 0.00 in0.0 mm 0.00 in0.0 mm 0.00 in0.0 mm
06:00 AM 38.1°F3.4°C 33.4°F0.8°C 83% 5.7 mph SW9.2 kmh SW 8.7 mph14.0 kmh 30.07 in1018.3 mb 0.00 in0.0 mm 0.00 in0.0 mm 0.00 in0.0 mm
06:15 AM 38.1°F3.4°C 33.4°F0.8°C 83% 5.0 mph SW8.0 kmh SW 8.5 mph13.7 kmh 30.04 in1017.3 mb 0.00 in0.0 mm 0.00 in0.0 mm 0.00 in0.0 mm
06:30 AM 38.5°F3.6°C 34.1°F1.2°C 84% 4.6 mph SW7.4 kmh SW 7.2 mph11.6 kmh 30.09 in1019.0 mb 0.00 in0.0 mm 0.00 in0.0 mm 0.00 in0.0 mm
06:45 AM 38.7°F3.7°C 34.5°F1.4°C 85% 7.2 mph SW11.6 kmh SW 11.0 mph17.7 kmh 30.07 in1018.3 mb 0.00 in0.0 mm 0.00 in0.0 mm 0.00 in0.0 mm
07:00 AM 39.0°F3.9°C 35.2°F1.8°C 86% 6.3 mph SW10.1 kmh SW 10.1 mph16.3 kmh 30.07 in1018.3 mb 0.00 in0.0 mm 0.00 in0.0 mm 0.00 in0.0 mm
07:15 AM 39.4°F4.1°C 35.8°F2.1°C 87% 6.2 mph WSW10.0 kmh WSW 10.1 mph16.3 kmh 30.07 in1018.3 mb 0.00 in0.0 mm 0.00 in0.0 mm 0.00 in0.0 mm
07:30 AM 39.9°F4.4°C 36.7°F2.6°C 88% 6.8 mph WSW10.9 kmh WSW 11.0 mph17.7 kmh 30.07 in1018.3 mb 0.00 in0.0 mm 0.00 in0.0 mm 0.00 in0.0 mm
07:45 AM 40.3°F4.6°C 37.0°F2.8°C 88% 6.4 mph WSW10.3 kmh WSW 11.0 mph17.7 kmh 30.04 in1017.3 mb 0.00 in0.0 mm 0.00 in0.0 mm 0.00 in0.0 mm
08:00 AM 40.5°F4.7°C 37.2°F2.9°C 88% 6.5 mph WSW10.5 kmh WSW 12.1 mph19.5 kmh 30.04 in1017.3 mb 0.00 in0.0 mm 0.00 in0.0 mm 0.00 in0.0 mm
08:15 AM 40.8°F4.9°C 37.5°F3.1°C 88% 6.8 mph SW10.9 kmh SW 10.7 mph17.2 kmh 30.04 in1017.3 mb 0.00 in0.0 mm 0.00 in0.0 mm 0.00 in0.0 mm
08:30 AM 40.8°F4.9°C 37.5°F3.1°C 88% 6.3 mph SW10.1 kmh SW 10.3 mph16.6 kmh 30.04 in1017.3 mb 0.00 in0.0 mm 0.00 in0.0 mm 0.00 in0.0 mm
08:45 AM 40.8°F4.9°C 37.5°F3.1°C 88% 7.4 mph WSW11.9 kmh WSW 12.5 mph20.1 kmh 30.01 in1016.3 mb 0.00 in0.0 mm 0.00 in0.0 mm 0.00 in0.0 mm
09:00 AM 41.0°F5.0°C 37.7°F3.2°C 88% 8.1 mph WSW13.0 kmh WSW 12.5 mph20.1 kmh 30.04 in1017.3 mb 0.00 in0.0 mm 0.00 in0.0 mm 0.00 in0.0 mm
09:15 AM 41.4°F5.2°C 37.8°F3.2°C 87% 8.3 mph WSW13.4 kmh WSW 13.0 mph20.9 kmh 30.04 in1017.3 mb 0.00 in0.0 mm 0.00 in0.0 mm 0.00 in0.0 mm
09:30 AM 41.5°F5.3°C 38.0°F3.3°C 87% 9.2 mph WSW14.8 kmh WSW 13.9 mph22.4 kmh 30.04 in1017.3 mb 0.00 in0.0 mm 0.00 in0.0 mm 0.00 in0.0 mm
09:45 AM 42.1°F5.6°C 37.9°F3.3°C 85% 8.7 mph WSW14.0 kmh WSW 14.8 mph23.8 kmh 30.04 in1017.3 mb 0.00 in0.0 mm 0.00 in0.0 mm 0.00 in0.0 mm
10:00 AM 42.4°F5.8°C 37.0°F2.8°C 81% 9.6 mph WSW15.4 kmh WSW 14.8 mph23.8 kmh 30.01 in1016.3 mb 0.00 in0.0 mm 0.00 in0.0 mm 0.00 in0.0 mm
10:15 AM 42.4°F5.8°C 36.1°F2.3°C 78% 10.2 mph WSW16.4 kmh WSW 16.3 mph26.2 kmh 30.01 in1016.3 mb 0.00 in0.0 mm 0.00 in0.0 mm 0.00 in0.0 mm
10:30 AM 42.8°F6.0°C 36.1°F2.3°C 77% 9.6 mph WSW15.4 kmh WSW 14.8 mph23.8 kmh 30.04 in1017.3 mb 0.00 in0.0 mm 0.00 in0.0 mm 0.00 in0.0 mm
10:45 AM 43.0°F6.1°C 35.9°F2.2°C 76% 9.3 mph SW15.0 kmh SW 15.4 mph24.8 kmh 30.01 in1016.3 mb 0.00 in0.0 mm 0.00 in0.0 mm 0.00 in0.0 mm
11:00 AM 43.2°F6.2°C 35.8°F2.1°C 75% 8.2 mph WSW13.2 kmh WSW 13.2 mph21.2 kmh 30.01 in1016.3 mb 0.00 in0.0 mm 0.00 in0.0 mm 0.00 in0.0 mm
11:15 AM 43.3°F6.3°C 35.9°F2.2°C 75% 8.2 mph WSW13.2 kmh WSW 13.0 mph20.9 kmh 30.01 in1016.3 mb 0.00 in0.0 mm 0.00 in0.0 mm 0.00 in0.0 mm
11:30 AM 43.3°F6.3°C 35.9°F2.2°C 75% 7.7 mph WSW12.4 kmh WSW 12.3 mph19.8 kmh 30.01 in1016.3 mb 0.00 in0.0 mm 0.00 in0.0 mm 0.00 in0.0 mm
11:45 AM 43.7°F6.5°C 36.6°F2.6°C 76% 9.3 mph WSW15.0 kmh WSW 13.2 mph21.2 kmh 30.01 in1016.3 mb 0.00 in0.0 mm 0.00 in0.0 mm 0.00 in0.0 mm
12:00 PM 44.1°F6.7°C 37.0°F2.8°C 76% 7.8 mph WSW12.6 kmh WSW 11.0 mph17.7 kmh 30.01 in1016.3 mb 0.00 in0.0 mm 0.00 in0.0 mm 0.00 in0.0 mm
12:15 PM 44.2°F6.8°C 36.8°F2.7°C 75% 8.5 mph WSW13.7 kmh WSW 13.0 mph20.9 kmh 30.01 in1016.3 mb 0.00 in0.0 mm 0.00 in0.0 mm 0.00 in0.0 mm
12:30 PM 44.8°F7.1°C 37.3°F2.9°C 75% 7.8 mph SW12.6 kmh SW 13.2 mph21.2 kmh 29.98 in1015.2 mb 0.00 in0.0 mm 0.00 in0.0 mm 0.00 in0.0 mm
12:45 PM 44.8°F7.1°C 37.0°F2.8°C 74% 8.5 mph SW13.7 kmh SW 15.7 mph25.3 kmh 30.01 in1016.3 mb 0.00 in0.0 mm 0.00 in0.0 mm 0.00 in0.0 mm
01:00 PM 45.0°F7.2°C 37.2°F2.9°C 74% 7.8 mph WSW12.6 kmh WSW 11.4 mph18.3 kmh 30.01 in1016.3 mb 0.00 in0.0 mm 0.00 in0.0 mm 0.00 in0.0 mm
01:15 PM 45.3°F7.4°C 37.2°F2.9°C 73% 8.4 mph SW13.5 kmh SW 14.5 mph23.3 kmh 30.01 in1016.3 mb 0.00 in0.0 mm 0.00 in0.0 mm 0.00 in0.0 mm
01:30 PM 45.7°F7.6°C 36.5°F2.5°C 70% 9.8 mph WSW15.8 kmh WSW 19.7 mph31.7 kmh 30.01 in1016.3 mb 0.00 in0.0 mm 0.00 in0.0 mm 0.00 in0.0 mm
01:45 PM 45.9°F7.7°C 35.5°F1.9°C 67% 10.9 mph SW17.5 kmh SW 17.7 mph28.5 kmh 30.01 in1016.3 mb 0.00 in0.0 mm 0.00 in0.0 mm 0.00 in0.0 mm
02:00 PM 45.9°F7.7°C 34.8°F1.6°C 65% 10.1 mph WSW16.3 kmh WSW 19.7 mph31.7 kmh 30.01 in1016.3 mb 0.00 in0.0 mm 0.00 in0.0 mm 0.00 in0.0 mm
02:15 PM 46.0°F7.8°C 34.1°F1.2°C 63% 9.8 mph WSW15.8 kmh WSW 15.4 mph24.8 kmh 29.98 in1015.2 mb 0.00 in0.0 mm 0.00 in0.0 mm 0.00 in0.0 mm
02:30 PM 46.2°F7.9°C 33.9°F1.1°C 62% 7.5 mph WSW12.1 kmh WSW 15.4 mph24.8 kmh 29.98 in1015.2 mb 0.00 in0.0 mm 0.00 in0.0 mm 0.00 in0.0 mm
02:45 PM 46.2°F7.9°C 34.7°F1.5°C 64% 8.1 mph SW13.0 kmh SW 14.8 mph23.8 kmh 29.98 in1015.2 mb 0.00 in0.0 mm 0.00 in0.0 mm 0.00 in0.0 mm
03:00 PM 46.0°F7.8°C 35.3°F1.8°C 66% 7.0 mph SW11.3 kmh SW 12.1 mph19.5 kmh 29.98 in1015.2 mb 0.00 in0.0 mm 0.00 in0.0 mm 0.00 in0.0 mm
03:15 PM 46.2°F7.9°C 35.5°F1.9°C 66% 8.0 mph WSW12.9 kmh WSW 13.0 mph20.9 kmh 29.98 in1015.2 mb 0.00 in0.0 mm 0.00 in0.0 mm 0.00 in0.0 mm
03:30 PM 46.4°F8.0°C 34.9°F1.6°C 64% 9.3 mph SW15.0 kmh SW 19.5 mph31.4 kmh 29.98 in1015.2 mb 0.00 in0.0 mm 0.00 in0.0 mm 0.00 in0.0 mm
03:45 PM 46.4°F8.0°C 34.5°F1.4°C 63% 8.5 mph WSW13.7 kmh WSW 12.5 mph20.1 kmh 29.98 in1015.2 mb 0.00 in0.0 mm 0.00 in0.0 mm 0.00 in0.0 mm
04:00 PM 46.2°F7.9°C 34.3°F1.3°C 63% 9.5 mph WSW15.3 kmh WSW 15.2 mph24.5 kmh 29.98 in1015.2 mb 0.00 in0.0 mm 0.00 in0.0 mm 0.00 in0.0 mm
04:15 PM 46.0°F7.8°C 34.1°F1.2°C 63% 9.9 mph SW15.9 kmh SW 15.4 mph24.8 kmh 29.98 in1015.2 mb 0.00 in0.0 mm 0.00 in0.0 mm 0.00 in0.0 mm
04:30 PM 46.0°F7.8°C 34.5°F1.4°C 64% 8.3 mph WSW13.4 kmh WSW 14.8 mph23.8 kmh 29.98 in1015.2 mb 0.00 in0.0 mm 0.00 in0.0 mm 0.00 in0.0 mm
04:45 PM 46.0°F7.8°C 34.9°F1.6°C 65% 7.3 mph WSW11.7 kmh WSW 15.9 mph25.6 kmh 29.98 in1015.2 mb 0.00 in0.0 mm 0.00 in0.0 mm 0.00 in0.0 mm
05:00 PM 46.0°F7.8°C 34.9°F1.6°C 65% 7.5 mph WSW12.1 kmh WSW 15.4 mph24.8 kmh 29.98 in1015.2 mb 0.00 in0.0 mm 0.00 in0.0 mm 0.00 in0.0 mm
05:15 PM 46.0°F7.8°C 34.9°F1.6°C 65% 6.7 mph WSW10.8 kmh WSW 13.0 mph20.9 kmh 29.98 in1015.2 mb 0.00 in0.0 mm 0.00 in0.0 mm 0.00 in0.0 mm
05:30 PM 45.9°F7.7°C 34.8°F1.6°C 65% 6.9 mph WSW11.1 kmh WSW 12.3 mph19.8 kmh 29.98 in1015.2 mb 0.00 in0.0 mm 0.00 in0.0 mm 0.00 in0.0 mm
05:45 PM 45.9°F7.7°C 35.1°F1.7°C 66% 7.1 mph WSW11.4 kmh WSW 13.6 mph21.9 kmh 29.98 in1015.2 mb 0.00 in0.0 mm 0.00 in0.0 mm 0.00 in0.0 mm
06:00 PM 45.9°F7.7°C 35.1°F1.7°C 66% 8.2 mph WSW13.2 kmh WSW 18.8 mph30.3 kmh 29.98 in1015.2 mb 0.00 in0.0 mm 0.00 in0.0 mm 0.00 in0.0 mm
06:15 PM 45.9°F7.7°C 35.1°F1.7°C 66% 7.4 mph WSW11.9 kmh WSW 12.8 mph20.6 kmh 29.98 in1015.2 mb 0.00 in0.0 mm 0.00 in0.0 mm 0.00 in0.0 mm
06:30 PM 45.7°F7.6°C 35.3°F1.8°C 67% 8.1 mph WSW13.0 kmh WSW 14.8 mph23.8 kmh 29.98 in1015.2 mb 0.00 in0.0 mm 0.00 in0.0 mm 0.00 in0.0 mm
06:45 PM 45.7°F7.6°C 35.3°F1.8°C 67% 8.8 mph WSW14.2 kmh WSW 16.1 mph25.9 kmh 29.98 in1015.2 mb 0.00 in0.0 mm 0.00 in0.0 mm 0.00 in0.0 mm
07:00 PM 45.7°F7.6°C 35.3°F1.8°C 67% 9.6 mph WSW15.4 kmh WSW 15.2 mph24.5 kmh 29.98 in1015.2 mb 0.00 in0.0 mm 0.00 in0.0 mm 0.00 in0.0 mm
07:15 PM 45.5°F7.5°C 35.5°F1.9°C 68% 9.2 mph WSW14.8 kmh WSW 13.2 mph21.2 kmh 29.98 in1015.2 mb 0.00 in0.0 mm 0.00 in0.0 mm 0.00 in0.0 mm
07:30 PM 45.3°F7.4°C 35.4°F1.9°C 68% 9.3 mph WSW15.0 kmh WSW 15.9 mph25.6 kmh 29.98 in1015.2 mb 0.00 in0.0 mm 0.00 in0.0 mm 0.00 in0.0 mm
07:45 PM 45.3°F7.4°C 35.4°F1.9°C 68% 9.2 mph WSW14.8 kmh WSW 15.4 mph24.8 kmh 29.95 in1014.2 mb 0.00 in0.0 mm 0.00 in0.0 mm 0.00 in0.0 mm
08:00 PM 45.3°F7.4°C 35.4°F1.9°C 68% 9.8 mph WSW15.8 kmh WSW 13.9 mph22.4 kmh 29.95 in1014.2 mb 0.00 in0.0 mm 0.00 in0.0 mm 0.00 in0.0 mm
08:15 PM 45.3°F7.4°C 35.7°F2.1°C 69% 9.3 mph WSW15.0 kmh WSW 19.5 mph31.4 kmh 29.98 in1015.2 mb 0.00 in0.0 mm 0.00 in0.0 mm 0.00 in0.0 mm
08:30 PM 45.3°F7.4°C 35.7°F2.1°C 69% 8.0 mph WSW12.9 kmh WSW 13.4 mph21.6 kmh 29.95 in1014.2 mb 0.00 in0.0 mm 0.00 in0.0 mm 0.00 in0.0 mm
08:45 PM 45.3°F7.4°C 36.1°F2.3°C 70% 9.9 mph SW15.9 kmh SW 15.4 mph24.8 kmh 29.95 in1014.2 mb 0.00 in0.0 mm 0.00 in0.0 mm 0.00 in0.0 mm
09:00 PM 45.3°F7.4°C 36.5°F2.5°C 71% 8.7 mph WSW14.0 kmh WSW 14.8 mph23.8 kmh 29.95 in1014.2 mb 0.00 in0.0 mm 0.00 in0.0 mm 0.00 in0.0 mm
09:15 PM 45.3°F7.4°C 36.8°F2.7°C 72% 8.5 mph WSW13.7 kmh WSW 13.2 mph21.2 kmh 29.95 in1014.2 mb 0.00 in0.0 mm 0.00 in0.0 mm 0.00 in0.0 mm
09:30 PM 45.3°F7.4°C 37.2°F2.9°C 73% 6.6 mph WSW10.6 kmh WSW 13.6 mph21.9 kmh 29.95 in1014.2 mb 0.00 in0.0 mm 0.00 in0.0 mm 0.00 in0.0 mm
09:45 PM 45.5°F7.5°C 37.3°F2.9°C 73% 8.6 mph SW13.8 kmh SW 12.1 mph19.5 kmh 29.95 in1014.2 mb 0.00 in0.0 mm 0.00 in0.0 mm 0.00 in0.0 mm
10:00 PM 45.5°F7.5°C 37.3°F2.9°C 73% 6.7 mph SW10.8 kmh SW 12.3 mph19.8 kmh 29.95 in1014.2 mb 0.00 in0.0 mm 0.00 in0.0 mm 0.00 in0.0 mm
10:15 PM 45.5°F7.5°C 37.3°F2.9°C 73% 8.1 mph SW13.0 kmh SW 15.2 mph24.5 kmh 29.95 in1014.2 mb 0.00 in0.0 mm 0.00 in0.0 mm 0.00 in0.0 mm
10:30 PM 45.5°F7.5°C 37.3°F2.9°C 73% 7.0 mph SW11.3 kmh SW 12.8 mph20.6 kmh 29.92 in1013.2 mb 0.00 in0.0 mm 0.00 in0.0 mm 0.00 in0.0 mm
10:45 PM 45.5°F7.5°C 37.3°F2.9°C 73% 8.1 mph SW13.0 kmh SW 13.2 mph21.2 kmh 29.95 in1014.2 mb 0.00 in0.0 mm 0.00 in0.0 mm 0.00 in0.0 mm
11:00 PM 45.3°F7.4°C 37.2°F2.9°C 73% 7.2 mph SW11.6 kmh SW 11.0 mph17.7 kmh 29.95 in1014.2 mb 0.00 in0.0 mm 0.00 in0.0 mm 0.00 in0.0 mm
11:15 PM 45.1°F7.3°C 37.0°F2.8°C 73% 6.5 mph SW10.5 kmh SW 10.3 mph16.6 kmh 29.95 in1014.2 mb 0.00 in0.0 mm 0.00 in0.0 mm 0.00 in0.0 mm
11:30 PM 45.0°F7.2°C 37.2°F2.9°C 74% 6.1 mph SW9.8 kmh SW 11.0 mph17.7 kmh 29.95 in1014.2 mb 0.00 in0.0 mm 0.00 in0.0 mm 0.00 in0.0 mm
11:45 PM 45.0°F7.2°C 37.5°F3.1°C 75% 8.2 mph SW13.2 kmh SW 13.0 mph20.9 kmh 29.95 in1014.2 mb 0.00 in0.0 mm 0.00 in0.0 mm 0.00 in0.0 mm